Terminal Aerodrome Forecast
Issued by NWS Rapid City, SD

Home | Current Version | Previous Version | Text Only | Print | Product List | Glossary Off
Versions: 1 2 3 4 5 6 7 8 9 10 11 12 13 14 15 16 17 18

311
FTUS43 KUNR 241603 AAA
TAFRAP
TAF AMD
KRAP 241603Z 2416/2512 01011KT P6SM OVC010
     FM241700 01008KT P6SM OVC020
     FM241900 VRB05KT P6SM BKN050
     FM250000 17007KT P6SM BKN060=

USA.gov is the U.S. government's official web portal to all federal, state and local government web resources and services.